createdAt,value
2023-10-26T00:01:00.197Z,12.1
2023-10-26T00:16:34.438Z,12.1
2023-10-26T00:32:08.708Z,12.1
2023-10-26T00:47:43.100Z,12.1
2023-10-26T01:03:17.802Z,12.1
2023-10-26T01:18:52.522Z,12.1
2023-10-26T01:34:26.813Z,12.1
2023-10-26T01:50:00.877Z,12.1
2023-10-26T02:05:35.465Z,12.2
2023-10-26T02:21:09.880Z,12.1
2023-10-26T02:36:44.010Z,12.2
2023-10-26T02:52:18.173Z,12.2
2023-10-26T03:07:52.249Z,12.2
2023-10-26T03:23:26.526Z,12
2023-10-26T03:39:00.804Z,11.5
2023-10-26T03:54:35.238Z,11.4
2023-10-26T04:10:09.384Z,11.4
2023-10-26T04:25:56.494Z,11.4
2023-10-26T04:41:30.575Z,11.5
2023-10-26T04:57:04.735Z,11.5
2023-10-26T05:12:38.874Z,11.6
2023-10-26T05:28:12.899Z,11.5
2023-10-26T05:43:46.955Z,11.7
2023-10-26T05:59:21.002Z,11.5
2023-10-26T06:14:55.074Z,11.5
2023-10-26T06:30:29.519Z,11.5
2023-10-26T06:46:04.062Z,11.5
2023-10-26T07:02:13.038Z,11.8
2023-10-26T07:17:47.264Z,12
2023-10-26T07:33:21.883Z,11.8
2023-10-26T07:48:56.017Z,12
2023-10-26T08:04:30.320Z,12.3
2023-10-26T08:20:04.992Z,12.7
2023-10-26T08:35:39.318Z,13.2
2023-10-26T08:51:13.403Z,13.6
2023-10-26T09:06:47.452Z,13.7
2023-10-26T09:22:21.506Z,13
2023-10-26T09:37:56.382Z,12.8
2023-10-26T09:53:31.021Z,13.1
2023-10-26T10:09:05.338Z,13.7
2023-10-26T10:24:39.864Z,13.5
2023-10-26T10:40:14.244Z,13.3
2023-10-26T10:55:48.689Z,12.9
2023-10-26T11:11:23.142Z,13
2023-10-26T11:26:57.683Z,12.8
2023-10-26T11:42:32.343Z,12.8
2023-10-26T11:58:07.096Z,13
2023-10-26T12:13:41.663Z,13.6
2023-10-26T12:29:16.248Z,13.9
2023-10-26T12:44:50.720Z,13.7
2023-10-26T13:00:25.200Z,14
2023-10-26T13:16:00.066Z,14.2
2023-10-26T13:31:35.005Z,14.1
2023-10-26T13:47:09.574Z,14
2023-10-26T14:02:44.268Z,13.9
2023-10-26T14:18:19.211Z,13.7
2023-10-26T14:33:56.891Z,13.7
2023-10-26T14:49:31.900Z,13.6
2023-10-26T15:05:06.694Z,13.5
2023-10-26T15:20:41.243Z,13.4
2023-10-26T15:36:15.623Z,13.2
2023-10-26T15:51:50.452Z,13
2023-10-26T16:07:25.052Z,12.7
2023-10-26T16:22:59.546Z,12.5
2023-10-26T16:38:34.060Z,12.1
2023-10-26T16:54:08.593Z,11.8
2023-10-26T17:09:43.889Z,11.5
2023-10-26T17:25:18.614Z,11.1
2023-10-26T17:40:53.213Z,10.8
2023-10-26T17:56:27.764Z,10.7
2023-10-26T18:12:02.267Z,10.7
2023-10-26T18:27:36.884Z,10.7
2023-10-26T18:43:11.512Z,10.7
2023-10-26T18:58:46.056Z,10.7
2023-10-26T19:14:20.841Z,10.6
2023-10-26T19:29:55.425Z,10.4
2023-10-26T19:45:30.084Z,10.4
2023-10-26T20:01:04.911Z,10.5
2023-10-26T20:16:41.586Z,10.6
2023-10-26T20:32:16.312Z,10.6
2023-10-26T20:47:50.993Z,10.7
2023-10-26T21:03:25.496Z,10.7
2023-10-26T21:19:00.232Z,10.8
2023-10-26T21:34:34.923Z,10.8
2023-10-26T21:50:09.639Z,10.8
2023-10-26T22:05:44.223Z,10.9
2023-10-26T22:21:18.728Z,10.9
2023-10-26T22:36:53.419Z,10.9
2023-10-26T22:52:28.038Z,10.7
2023-10-26T23:08:02.568Z,10.7
2023-10-26T23:23:37.224Z,10.8
2023-10-26T23:39:11.733Z,10.7
2023-10-26T23:54:46.226Z,10.7
